sensor_id;sensor_type;location;lat;lon;timestamp;pressure;altitude;pressure_sealevel;temperature;humidity
5296;BME280;2670;42.720;23.336;2023-03-04T00:02:03;-22595.06;;;5.27;100.00
5296;BME280;2670;42.720;23.336;2023-03-04T00:04:31;-22593.13;;;5.20;100.00
5296;BME280;2670;42.720;23.336;2023-03-04T00:06:58;-22589.25;;;5.07;100.00
5296;BME280;2670;42.720;23.336;2023-03-04T00:09:24;-22591.94;;;5.16;100.00
5296;BME280;2670;42.720;23.336;2023-03-04T00:11:51;-22596.84;;;5.33;100.00
5296;BME280;2670;42.720;23.336;2023-03-04T00:14:18;-22595.38;;;5.28;100.00
5296;BME280;2670;42.720;23.336;2023-03-04T00:16:45;-22592.09;;;5.16;100.00
5296;BME280;2670;42.720;23.336;2023-03-04T00:19:13;-22597.31;;;5.34;100.00
5296;BME280;2670;42.720;23.336;2023-03-04T00:21:41;-22595.50;;;5.28;100.00
5296;BME280;2670;42.720;23.336;2023-03-04T00:24:08;-22595.97;;;5.30;100.00
5296;BME280;2670;42.720;23.336;2023-03-04T00:26:35;-22592.84;;;5.19;100.00
5296;BME280;2670;42.720;23.336;2023-03-04T00:29:01;-22595.22;;;5.27;100.00
5296;BME280;2670;42.720;23.336;2023-03-04T00:31:28;-22595.06;;;5.27;100.00
5296;BME280;2670;42.720;23.336;2023-03-04T00:33:55;-22592.69;;;5.18;100.00
5296;BME280;2670;42.720;23.336;2023-03-04T00:36:21;-22590.00;;;5.09;100.00
5296;BME280;2670;42.720;23.336;2023-03-04T00:38:50;-22596.84;;;5.33;100.00
5296;BME280;2670;42.720;23.336;2023-03-04T00:41:17;-22592.25;;;5.17;100.00
5296;BME280;2670;42.720;23.336;2023-03-04T00:43:44;-22591.78;;;5.15;100.00
5296;BME280;2670;42.720;23.336;2023-03-04T00:46:10;-22592.38;;;5.17;100.00
5296;BME280;2670;42.720;23.336;2023-03-04T00:48:37;-22592.25;;;5.17;100.00
5296;BME280;2670;42.720;23.336;2023-03-04T00:51:04;-22588.38;;;5.04;100.00
5296;BME280;2670;42.720;23.336;2023-03-04T00:53:31;-22588.50;;;5.04;100.00
5296;BME280;2670;42.720;23.336;2023-03-04T00:55:59;-22589.84;;;5.09;100.00
5296;BME280;2670;42.720;23.336;2023-03-04T00:58:26;-22589.25;;;5.07;100.00
5296;BME280;2670;42.720;23.336;2023-03-04T01:00:52;-22587.03;;;4.99;100.00
5296;BME280;2670;42.720;23.336;2023-03-04T01:03:19;-22589.09;;;5.06;100.00
5296;BME280;2670;42.720;23.336;2023-03-04T01:05:46;-22588.22;;;5.03;100.00
5296;BME280;2670;42.720;23.336;2023-03-04T01:08:13;-22590.16;;;5.10;100.00
5296;BME280;2670;42.720;23.336;2023-03-04T01:10:39;-22586.56;;;4.97;100.00
5296;BME280;2670;42.720;23.336;2023-03-04T01:13:07;-22589.41;;;5.07;100.00
5296;BME280;2670;42.720;23.336;2023-03-04T01:15:34;-22588.06;;;5.03;100.00
5296;BME280;2670;42.720;23.336;2023-03-04T01:18:01;-22591.94;;;5.16;100.00
5296;BME280;2670;42.720;23.336;2023-03-04T01:20:28;-22590.16;;;5.10;100.00
5296;BME280;2670;42.720;23.336;2023-03-04T01:22:55;-22589.84;;;5.09;100.00
5296;BME280;2670;42.720;23.336;2023-03-04T01:25:22;-22589.41;;;5.07;100.00
5296;BME280;2670;42.720;23.336;2023-03-04T01:27:48;-22591.66;;;5.15;100.00
5296;BME280;2670;42.720;23.336;2023-03-04T01:30:17;-22589.41;;;5.07;100.00
5296;BME280;2670;42.720;23.336;2023-03-04T01:32:43;-22591.03;;;5.13;100.00
5296;BME280;2670;42.720;23.336;2023-03-04T01:35:10;-22590.00;;;5.09;100.00
5296;BME280;2670;42.720;23.336;2023-03-04T01:37:37;-22589.09;;;5.06;100.00
5296;BME280;2670;42.720;23.336;2023-03-04T01:40:05;-22594.19;;;5.23;100.00
5296;BME280;2670;42.720;23.336;2023-03-04T01:42:33;-22591.03;;;5.13;100.00
5296;BME280;2670;42.720;23.336;2023-03-04T01:45:01;-22590.75;;;5.12;100.00
5296;BME280;2670;42.720;23.336;2023-03-04T01:47:30;-22591.34;;;5.14;100.00
5296;BME280;2670;42.720;23.336;2023-03-04T01:50:00;-22591.19;;;5.13;100.00
5296;BME280;2670;42.720;23.336;2023-03-04T01:52:28;-22592.09;;;5.16;100.00
5296;BME280;2670;42.720;23.336;2023-03-04T01:54:55;-22590.91;;;5.12;100.00
5296;BME280;2670;42.720;23.336;2023-03-04T01:57:24;-22587.91;;;5.02;100.00
5296;BME280;2670;42.720;23.336;2023-03-04T02:00:23;-22586.56;;;4.97;100.00
5296;BME280;2670;42.720;23.336;2023-03-04T02:02:54;-22587.47;;;5.00;100.00
5296;BME280;2670;42.720;23.336;2023-03-04T02:05:23;-22589.84;;;5.09;100.00
5296;BME280;2670;42.720;23.336;2023-03-04T02:07:51;-22588.38;;;5.04;100.00
5296;BME280;2670;42.720;23.336;2023-03-04T02:10:18;-22590.44;;;5.11;100.00
5296;BME280;2670;42.720;23.336;2023-03-04T02:12:45;-22588.06;;;5.03;100.00
5296;BME280;2670;42.720;23.336;2023-03-04T02:15:12;-22585.09;;;4.92;100.00
5296;BME280;2670;42.720;23.336;2023-03-04T02:17:39;-22583.28;;;4.86;100.00
5296;BME280;2670;42.720;23.336;2023-03-04T02:20:14;-22584.03;;;4.89;100.00
5296;BME280;2670;42.720;23.336;2023-03-04T02:22:48;-22586.28;;;4.96;100.00
5296;BME280;2670;42.720;23.336;2023-03-04T02:25:21;-22586.28;;;4.96;100.00
5296;BME280;2670;42.720;23.336;2023-03-04T02:27:51;-22581.34;;;4.80;100.00
5296;BME280;2670;42.720;23.336;2023-03-04T02:30:21;-22584.78;;;4.91;100.00
5296;BME280;2670;42.720;23.336;2023-03-04T02:32:49;-22585.09;;;4.92;100.00
5296;BME280;2670;42.720;23.336;2023-03-04T02:35:17;-22582.25;;;4.83;100.00
5296;BME280;2670;42.720;23.336;2023-03-04T02:37:44;-22580.00;;;4.75;100.00
5296;BME280;2670;42.720;23.336;2023-03-04T02:40:14;-22580.91;;;4.78;100.00
5296;BME280;2670;42.720;23.336;2023-03-04T02:42:43;-22581.97;;;4.82;100.00
5296;BME280;2670;42.720;23.336;2023-03-04T02:45:45;-22578.97;;;4.71;100.00
5296;BME280;2670;42.720;23.336;2023-03-04T02:48:13;-22578.53;;;4.70;100.00
5296;BME280;2670;42.720;23.336;2023-03-04T02:50:43;-22578.38;;;4.69;100.00
5296;BME280;2670;42.720;23.336;2023-03-04T02:53:11;-22578.22;;;4.69;100.00
5296;BME280;2670;42.720;23.336;2023-03-04T02:55:38;-22578.97;;;4.71;100.00
5296;BME280;2670;42.720;23.336;2023-03-04T02:58:05;-22578.22;;;4.69;100.00
5296;BME280;2670;42.720;23.336;2023-03-04T03:00:32;-22576.72;;;4.64;100.00
5296;BME280;2670;42.720;23.336;2023-03-04T03:03:00;-22577.03;;;4.65;100.00
5296;BME280;2670;42.720;23.336;2023-03-04T03:05:30;-22576.13;;;4.62;100.00
5296;BME280;2670;42.720;23.336;2023-03-04T03:07:56;-22574.94;;;4.58;100.00
5296;BME280;2670;42.720;23.336;2023-03-04T03:10:23;-22574.34;;;4.56;100.00
5296;BME280;2670;42.720;23.336;2023-03-04T03:12:50;-22574.19;;;4.55;100.00
5296;BME280;2670;42.720;23.336;2023-03-04T03:15:17;-22573.47;;;4.53;100.00
5296;BME280;2670;42.720;23.336;2023-03-04T03:17:44;-22570.78;;;4.43;100.00
5296;BME280;2670;42.720;23.336;2023-03-04T03:20:13;-22571.81;;;4.47;100.00
5296;BME280;2670;42.720;23.336;2023-03-04T03:22:40;-22570.03;;;4.41;100.00
5296;BME280;2670;42.720;23.336;2023-03-04T03:25:09;-22569.28;;;4.38;100.00
5296;BME280;2670;42.720;23.336;2023-03-04T03:27:36;-22570.78;;;4.43;100.00
5296;BME280;2670;42.720;23.336;2023-03-04T03:30:04;-22570.19;;;4.41;100.00
5296;BME280;2670;42.720;23.336;2023-03-04T03:32:32;-22571.97;;;4.47;100.00
5296;BME280;2670;42.720;23.336;2023-03-04T03:34:58;-22570.78;;;4.43;100.00
5296;BME280;2670;42.720;23.336;2023-03-04T03:37:26;-22567.50;;;4.32;100.00
5296;BME280;2670;42.720;23.336;2023-03-04T03:39:53;-22567.94;;;4.34;100.00
5296;BME280;2670;42.720;23.336;2023-03-04T03:42:20;-22566.00;;;4.27;100.00
5296;BME280;2670;42.720;23.336;2023-03-04T03:44:46;-22563.75;;;4.19;100.00
5296;BME280;2670;42.720;23.336;2023-03-04T03:47:14;-22562.88;;;4.16;100.00
5296;BME280;2670;42.720;23.336;2023-03-04T03:49:41;-22562.56;;;4.15;100.00
5296;BME280;2670;42.720;23.336;2023-03-04T03:52:08;-22561.81;;;4.13;100.00
5296;BME280;2670;42.720;23.336;2023-03-04T03:54:36;-22558.69;;;4.02;100.00
5296;BME280;2670;42.720;23.336;2023-03-04T03:57:02;-22557.50;;;3.98;100.00
5296;BME280;2670;42.720;23.336;2023-03-04T03:59:29;-22557.34;;;3.97;100.00
5296;BME280;2670;42.720;23.336;2023-03-04T04:01:56;-22557.94;;;3.99;100.00
5296;BME280;2670;42.720;23.336;2023-03-04T04:04:23;-22557.06;;;3.96;100.00
5296;BME280;2670;42.720;23.336;2023-03-04T04:06:50;-22556.16;;;3.93;100.00
5296;BME280;2670;42.720;23.336;2023-03-04T04:09:16;-22556.59;;;3.95;100.00
5296;BME280;2670;42.720;23.336;2023-03-04T04:11:44;-22553.31;;;3.84;100.00
5296;BME280;2670;42.720;23.336;2023-03-04T04:14:12;-22552.56;;;3.81;100.00
5296;BME280;2670;42.720;23.336;2023-03-04T04:16:39;-22550.19;;;3.73;100.00
5296;BME280;2670;42.720;23.336;2023-03-04T04:19:06;-22550.03;;;3.72;100.00
5296;BME280;2670;42.720;23.336;2023-03-04T04:21:32;-22549.44;;;3.70;100.00
5296;BME280;2670;42.720;23.336;2023-03-04T04:23:59;-22547.34;;;3.63;100.00
5296;BME280;2670;42.720;23.336;2023-03-04T04:26:26;-22546.91;;;3.62;100.00
5296;BME280;2670;42.720;23.336;2023-03-04T04:28:54;-22546.47;;;3.60;100.00
5296;BME280;2670;42.720;23.336;2023-03-04T04:31:21;-22545.84;;;3.58;100.00
5296;BME280;2670;42.720;23.336;2023-03-04T04:33:47;-22546.75;;;3.61;100.00
5296;BME280;2670;42.720;23.336;2023-03-04T04:36:14;-22547.66;;;3.64;100.00
5296;BME280;2670;42.720;23.336;2023-03-04T04:38:42;-22544.38;;;3.53;100.00
5296;BME280;2670;42.720;23.336;2023-03-04T04:41:18;-22544.38;;;3.53;100.00
5296;BME280;2670;42.720;23.336;2023-03-04T04:43:45;-22543.31;;;3.49;100.00
5296;BME280;2670;42.720;23.336;2023-03-04T04:46:14;-22543.03;;;3.48;100.00
5296;BME280;2670;42.720;23.336;2023-03-04T04:48:41;-22541.53;;;3.43;100.00
5296;BME280;2670;42.720;23.336;2023-03-04T04:51:08;-22541.22;;;3.42;100.00
5296;BME280;2670;42.720;23.336;2023-03-04T04:53:35;-22540.94;;;3.41;100.00
5296;BME280;2670;42.720;23.336;2023-03-04T04:56:08;-22540.03;;;3.38;100.00
5296;BME280;2670;42.720;23.336;2023-03-04T04:58:35;-22539.44;;;3.36;100.00
5296;BME280;2670;42.720;23.336;2023-03-04T05:01:03;-22538.41;;;3.33;100.00
5296;BME280;2670;42.720;23.336;2023-03-04T05:03:32;-22537.34;;;3.29;100.00
5296;BME280;2670;42.720;23.336;2023-03-04T05:05:59;-22538.25;;;3.32;100.00
5296;BME280;2670;42.720;23.336;2023-03-04T05:08:25;-22537.19;;;3.29;100.00
5296;BME280;2670;42.720;23.336;2023-03-04T05:10:52;-22537.19;;;3.29;100.00
5296;BME280;2670;42.720;23.336;2023-03-04T05:13:19;-22537.06;;;3.28;100.00
5296;BME280;2670;42.720;23.336;2023-03-04T05:15:46;-22537.66;;;3.30;100.00
5296;BME280;2670;42.720;23.336;2023-03-04T05:18:12;-22539.75;;;3.37;100.00
5296;BME280;2670;42.720;23.336;2023-03-04T05:20:41;-22540.63;;;3.40;100.00
5296;BME280;2670;42.720;23.336;2023-03-04T05:23:07;-22540.19;;;3.39;100.00
5296;BME280;2670;42.720;23.336;2023-03-04T05:25:34;-22539.88;;;3.38;100.00
5296;BME280;2670;42.720;23.336;2023-03-04T05:28:01;-22539.59;;;3.37;100.00
5296;BME280;2670;42.720;23.336;2023-03-04T05:30:29;-22539.16;;;3.35;100.00
5296;BME280;2670;42.720;23.336;2023-03-04T05:32:56;-22539.59;;;3.37;100.00
5296;BME280;2670;42.720;23.336;2023-03-04T05:35:22;-22539.88;;;3.38;100.00
5296;BME280;2670;42.720;23.336;2023-03-04T05:37:50;-22541.84;;;3.44;100.00
5296;BME280;2670;42.720;23.336;2023-03-04T05:40:17;-22544.50;;;3.54;100.00
5296;BME280;2670;42.720;23.336;2023-03-04T05:42:44;-22544.81;;;3.55;100.00
5296;BME280;2670;42.720;23.336;2023-03-04T05:45:10;-22548.09;;;3.66;100.00
5296;BME280;2670;42.720;23.336;2023-03-04T05:47:37;-22549.59;;;3.71;100.00
5296;BME280;2670;42.720;23.336;2023-03-04T05:50:05;-22550.19;;;3.73;100.00
5296;BME280;2670;42.720;23.336;2023-03-04T05:52:31;-22554.50;;;3.88;100.00
5296;BME280;2670;42.720;23.336;2023-03-04T05:54:59;-22554.81;;;3.89;100.00
5296;BME280;2670;42.720;23.336;2023-03-04T05:57:26;-22554.22;;;3.87;100.00
5296;BME280;2670;42.720;23.336;2023-03-04T05:59:53;-22556.31;;;3.94;100.00
5296;BME280;2670;42.720;23.336;2023-03-04T06:02:20;-22555.56;;;3.91;100.00
5296;BME280;2670;42.720;23.336;2023-03-04T06:04:46;-22559.00;;;4.03;100.00
5296;BME280;2670;42.720;23.336;2023-03-04T06:07:13;-22562.72;;;4.16;100.00
5296;BME280;2670;42.720;23.336;2023-03-04T06:09:40;-22567.63;;;4.33;100.00
5296;BME280;2670;42.720;23.336;2023-03-04T06:12:10;-22564.50;;;4.22;100.00
5296;BME280;2670;42.720;23.336;2023-03-04T06:14:37;-22566.00;;;4.27;100.00
5296;BME280;2670;42.720;23.336;2023-03-04T06:17:04;-22568.09;;;4.34;100.00
5296;BME280;2670;42.720;23.336;2023-03-04T06:19:31;-22569.88;;;4.40;100.00
5296;BME280;2670;42.720;23.336;2023-03-04T06:21:58;-22570.78;;;4.43;100.00
5296;BME280;2670;42.720;23.336;2023-03-04T06:24:25;-22575.25;;;4.59;100.00
5296;BME280;2670;42.720;23.336;2023-03-04T06:26:52;-22580.63;;;4.77;100.00
5296;BME280;2670;42.720;23.336;2023-03-04T06:29:20;-22582.56;;;4.84;100.00
5296;BME280;2670;42.720;23.336;2023-03-04T06:31:47;-22582.09;;;4.82;100.00
5296;BME280;2670;42.720;23.336;2023-03-04T06:34:14;-22581.06;;;4.79;100.00
5296;BME280;2670;42.720;23.336;2023-03-04T06:36:40;-22581.34;;;4.80;100.00
5296;BME280;2670;42.720;23.336;2023-03-04T06:39:08;-22583.44;;;4.87;100.00
5296;BME280;2670;42.720;23.336;2023-03-04T06:41:35;-22583.88;;;4.88;100.00
5296;BME280;2670;42.720;23.336;2023-03-04T06:44:01;-22588.81;;;5.05;100.00
5296;BME280;2670;42.720;23.336;2023-03-04T06:46:30;-22589.56;;;5.08;100.00
5296;BME280;2670;42.720;23.336;2023-03-04T06:48:58;-22589.56;;;5.08;100.00
5296;BME280;2670;42.720;23.336;2023-03-04T06:51:25;-22589.84;;;5.09;100.00
5296;BME280;2670;42.720;23.336;2023-03-04T06:53:52;-22588.97;;;5.06;100.00
5296;BME280;2670;42.720;23.336;2023-03-04T06:56:18;-22590.44;;;5.11;100.00
5296;BME280;2670;42.720;23.336;2023-03-04T06:58:45;-22592.84;;;5.19;100.00
5296;BME280;2670;42.720;23.336;2023-03-04T07:01:15;-22591.34;;;5.14;100.00
5296;BME280;2670;42.720;23.336;2023-03-04T07:03:44;-22592.69;;;5.18;100.00
5296;BME280;2670;42.720;23.336;2023-03-04T07:06:11;-22590.31;;;5.10;100.00
5296;BME280;2670;42.720;23.336;2023-03-04T07:08:39;-22593.72;;;5.22;100.00
5296;BME280;2670;42.720;23.336;2023-03-04T07:11:06;-22592.53;;;5.18;100.00
5296;BME280;2670;42.720;23.336;2023-03-04T07:13:33;-22592.69;;;5.18;100.00
5296;BME280;2670;42.720;23.336;2023-03-04T07:16:03;-22592.53;;;5.18;100.00
5296;BME280;2670;42.720;23.336;2023-03-04T07:18:29;-22591.19;;;5.13;100.00
5296;BME280;2670;42.720;23.336;2023-03-04T07:20:58;-22594.91;;;5.26;100.00
5296;BME280;2670;42.720;23.336;2023-03-04T07:23:25;-22598.78;;;5.39;100.00
5296;BME280;2670;42.720;23.336;2023-03-04T07:25:51;-22600.00;;;5.43;100.00
5296;BME280;2670;42.720;23.336;2023-03-04T07:28:18;-22599.69;;;5.42;100.00
5296;BME280;2670;42.720;23.336;2023-03-04T07:30:45;-22604.00;;;5.57;100.00
5296;BME280;2670;42.720;23.336;2023-03-04T07:33:12;-22604.00;;;5.57;100.00
5296;BME280;2670;42.720;23.336;2023-03-04T07:35:39;-22603.13;;;5.54;100.00
5296;BME280;2670;42.720;23.336;2023-03-04T07:38:07;-22601.47;;;5.48;100.00
5296;BME280;2670;42.720;23.336;2023-03-04T07:40:34;-22604.91;;;5.60;100.00
5296;BME280;2670;42.720;23.336;2023-03-04T07:43:02;-22603.84;;;5.57;100.00
5296;BME280;2670;42.720;23.336;2023-03-04T07:45:29;-22607.13;;;5.68;100.00
5296;BME280;2670;42.720;23.336;2023-03-04T07:47:56;-22609.66;;;5.77;100.00
5296;BME280;2670;42.720;23.336;2023-03-04T07:50:24;-22608.91;;;5.74;100.00
5296;BME280;2670;42.720;23.336;2023-03-04T07:52:50;-22609.97;;;5.78;100.00
5296;BME280;2670;42.720;23.336;2023-03-04T07:55:19;-22609.50;;;5.76;100.00
5296;BME280;2670;42.720;23.336;2023-03-04T07:57:46;-22610.41;;;5.79;100.00
5296;BME280;2670;42.720;23.336;2023-03-04T08:00:15;-22612.03;;;5.85;100.00
5296;BME280;2670;42.720;23.336;2023-03-04T08:02:42;-22614.72;;;5.94;100.00
5296;BME280;2670;42.720;23.336;2023-03-04T08:05:08;-22618.00;;;6.05;100.00
5296;BME280;2670;42.720;23.336;2023-03-04T08:07:35;-22617.13;;;6.02;100.00
5296;BME280;2670;42.720;23.336;2023-03-04T08:10:02;-22615.78;;;5.97;100.00
5296;BME280;2670;42.720;23.336;2023-03-04T08:12:30;-22615.31;;;5.96;100.00
5296;BME280;2670;42.720;23.336;2023-03-04T08:14:57;-22615.03;;;5.95;100.00
5296;BME280;2670;42.720;23.336;2023-03-04T08:17:24;-22618.59;;;6.07;100.00
5296;BME280;2670;42.720;23.336;2023-03-04T08:19:51;-22616.66;;;6.01;100.00
5296;BME280;2670;42.720;23.336;2023-03-04T08:22:17;-22611.91;;;5.84;100.00
5296;BME280;2670;42.720;23.336;2023-03-04T08:24:44;-22616.66;;;6.01;100.00
5296;BME280;2670;42.720;23.336;2023-03-04T08:27:11;-22617.41;;;6.03;100.00
5296;BME280;2670;42.720;23.336;2023-03-04T08:29:42;-22615.03;;;5.95;100.00
5296;BME280;2670;42.720;23.336;2023-03-04T08:32:08;-22614.44;;;5.93;100.00
5296;BME280;2670;42.720;23.336;2023-03-04T08:34:37;-22618.47;;;6.07;100.00
5296;BME280;2670;42.720;23.336;2023-03-04T08:37:04;-22618.31;;;6.06;100.00
5296;BME280;2670;42.720;23.336;2023-03-04T08:39:31;-22619.19;;;6.09;100.00
5296;BME280;2670;42.720;23.336;2023-03-04T08:42:00;-22618.00;;;6.05;100.00
5296;BME280;2670;42.720;23.336;2023-03-04T08:44:27;-22618.59;;;6.07;100.00
5296;BME280;2670;42.720;23.336;2023-03-04T08:46:55;-22623.81;;;6.25;100.00
5296;BME280;2670;42.720;23.336;2023-03-04T08:49:22;-22626.03;;;6.33;100.00
5296;BME280;2670;42.720;23.336;2023-03-04T08:51:48;-22625.91;;;6.32;100.00
5296;BME280;2670;42.720;23.336;2023-03-04T08:54:15;-22626.50;;;6.34;100.00
5296;BME280;2670;42.720;23.336;2023-03-04T08:56:42;-22627.38;;;6.37;100.00
5296;BME280;2670;42.720;23.336;2023-03-04T08:59:08;-22628.13;;;6.40;100.00
5296;BME280;2670;42.720;23.336;2023-03-04T09:01:35;-22629.16;;;6.43;100.00
5296;BME280;2670;42.720;23.336;2023-03-04T09:04:03;-22631.84;;;6.53;100.00
5296;BME280;2670;42.720;23.336;2023-03-04T09:06:30;-22631.09;;;6.50;100.00
5296;BME280;2670;42.720;23.336;2023-03-04T09:08:57;-22628.13;;;6.40;100.00
5296;BME280;2670;42.720;23.336;2023-03-04T09:11:24;-22625.16;;;6.30;100.00
5296;BME280;2670;42.720;23.336;2023-03-04T09:13:51;-22629.78;;;6.45;100.00
5296;BME280;2670;42.720;23.336;2023-03-04T09:16:18;-22628.72;;;6.42;100.00
5296;BME280;2670;42.720;23.336;2023-03-04T09:18:44;-22629.16;;;6.43;100.00
5296;BME280;2670;42.720;23.336;2023-03-04T09:21:13;-22633.03;;;6.57;100.00
5296;BME280;2670;42.720;23.336;2023-03-04T09:23:39;-22632.44;;;6.55;100.00
5296;BME280;2670;42.720;23.336;2023-03-04T09:26:14;-22634.38;;;6.61;100.00
5296;BME280;2670;42.720;23.336;2023-03-04T09:28:41;-22639.59;;;6.79;100.00
5296;BME280;2670;42.720;23.336;2023-03-04T09:31:12;-22638.69;;;6.76;100.00
5296;BME280;2670;42.720;23.336;2023-03-04T09:33:40;-22636.00;;;6.67;100.00
5296;BME280;2670;42.720;23.336;2023-03-04T09:36:08;-22638.69;;;6.76;100.00
5296;BME280;2670;42.720;23.336;2023-03-04T09:38:37;-22638.69;;;6.76;100.00
5296;BME280;2670;42.720;23.336;2023-03-04T09:41:06;-22641.53;;;6.86;100.00
5296;BME280;2670;42.720;23.336;2023-03-04T09:43:34;-22644.50;;;6.96;100.00
5296;BME280;2670;42.720;23.336;2023-03-04T09:46:06;-22644.50;;;6.96;100.00
5296;BME280;2670;42.720;23.336;2023-03-04T09:48:39;-22647.16;;;7.05;100.00
5296;BME280;2670;42.720;23.336;2023-03-04T09:51:19;-22648.50;;;7.10;100.00
5296;BME280;2670;42.720;23.336;2023-03-04T09:54:04;-22650.44;;;7.16;100.00
5296;BME280;2670;42.720;23.336;2023-03-04T09:56:33;-22652.97;;;7.25;100.00
5296;BME280;2670;42.720;23.336;2023-03-04T09:59:05;-22652.97;;;7.25;100.00
5296;BME280;2670;42.720;23.336;2023-03-04T10:01:38;-22653.88;;;7.28;100.00
5296;BME280;2670;42.720;23.336;2023-03-04T10:04:11;-22659.50;;;7.47;100.00
5296;BME280;2670;42.720;23.336;2023-03-04T10:06:40;-22662.19;;;7.57;100.00
5296;BME280;2670;42.720;23.336;2023-03-04T10:09:14;-22664.41;;;7.64;100.00
5296;BME280;2670;42.720;23.336;2023-03-04T10:11:47;-22663.38;;;7.61;100.00
5296;BME280;2670;42.720;23.336;2023-03-04T10:14:29;-22664.13;;;7.63;100.00
5296;BME280;2670;42.720;23.336;2023-03-04T10:17:02;-22664.25;;;7.64;100.00
5296;BME280;2670;42.720;23.336;2023-03-04T10:19:37;-22665.59;;;7.68;100.00
5296;BME280;2670;42.720;23.336;2023-03-04T10:22:16;-22667.25;;;7.74;100.00
5296;BME280;2670;42.720;23.336;2023-03-04T10:24:46;-22667.84;;;7.76;100.00
5296;BME280;2670;42.720;23.336;2023-03-04T10:27:16;-22672.00;;;7.90;100.00
5296;BME280;2670;42.720;23.336;2023-03-04T10:29:44;-22674.81;;;8.00;100.00
5296;BME280;2670;42.720;23.336;2023-03-04T10:32:13;-22673.34;;;7.95;100.00
5296;BME280;2670;42.720;23.336;2023-03-04T10:34:41;-22673.78;;;7.96;100.00
5296;BME280;2670;42.720;23.336;2023-03-04T10:37:08;-22675.72;;;8.03;100.00
5296;BME280;2670;42.720;23.336;2023-03-04T10:39:38;-22674.66;;;7.99;100.00
5296;BME280;2670;42.720;23.336;2023-03-04T10:42:23;-22674.06;;;7.97;100.00
5296;BME280;2670;42.720;23.336;2023-03-04T10:44:52;-22675.56;;;8.03;100.00
5296;BME280;2670;42.720;23.336;2023-03-04T10:47:22;-22674.22;;;7.98;100.00
5296;BME280;2670;42.720;23.336;2023-03-04T10:49:51;-22681.19;;;8.22;100.00
5296;BME280;2670;42.720;23.336;2023-03-04T10:52:26;-22680.47;;;8.19;100.00
5296;BME280;2670;42.720;23.336;2023-03-04T10:54:54;-22684.03;;;8.32;100.00
5296;BME280;2670;42.720;23.336;2023-03-04T10:57:24;-22686.09;;;8.39;100.00
5296;BME280;2670;42.720;23.336;2023-03-04T10:59:56;-22684.31;;;8.33;100.00
5296;BME280;2670;42.720;23.336;2023-03-04T11:02:25;-22687.00;;;8.42;100.00
5296;BME280;2670;42.720;23.336;2023-03-04T11:04:54;-22689.22;;;8.50;100.00
5296;BME280;2670;42.720;23.336;2023-03-04T11:07:24;-22688.94;;;8.48;100.00
5296;BME280;2670;42.720;23.336;2023-03-04T11:09:54;-22692.19;;;8.60;100.00
5296;BME280;2670;42.720;23.336;2023-03-04T11:12:31;-22691.91;;;8.59;100.00
5296;BME280;2670;42.720;23.336;2023-03-04T11:14:59;-22692.94;;;8.62;100.00
5296;BME280;2670;42.720;23.336;2023-03-04T11:17:28;-22696.78;;;8.76;100.00
5296;BME280;2670;42.720;23.336;2023-03-04T11:19:58;-22696.94;;;8.76;100.00
5296;BME280;2670;42.720;23.336;2023-03-04T11:22:28;-22701.53;;;8.92;100.00
5296;BME280;2670;42.720;23.336;2023-03-04T11:25:00;-22706.00;;;9.07;100.00
5296;BME280;2670;42.720;23.336;2023-03-04T11:27:35;-22705.56;;;9.06;100.00
5296;BME280;2670;42.720;23.336;2023-03-04T11:30:18;-22706.28;;;9.08;100.00
5296;BME280;2670;42.720;23.336;2023-03-04T11:32:48;-22704.97;;;9.04;100.00
5296;BME280;2670;42.720;23.336;2023-03-04T11:35:22;-22700.66;;;8.89;100.00
5296;BME280;2670;42.720;23.336;2023-03-04T11:37:56;-22701.25;;;8.91;100.00
5296;BME280;2670;42.720;23.336;2023-03-04T11:40:28;-22701.25;;;8.91;100.00
5296;BME280;2670;42.720;23.336;2023-03-04T11:43:02;-22702.00;;;8.93;100.00
5296;BME280;2670;42.720;23.336;2023-03-04T11:48:33;-22704.50;;;9.02;100.00
5296;BME280;2670;42.720;23.336;2023-03-04T11:51:06;-22704.50;;;9.02;100.00
5296;BME280;2670;42.720;23.336;2023-03-04T11:53:43;-22706.75;;;9.10;100.00
5296;BME280;2670;42.720;23.336;2023-03-04T11:56:30;-22704.22;;;9.01;100.00
5296;BME280;2670;42.720;23.336;2023-03-04T11:59:23;-22706.28;;;9.08;100.00
5296;BME280;2670;42.720;23.336;2023-03-04T12:02:02;-22711.34;;;9.26;100.00
5296;BME280;2670;42.720;23.336;2023-03-04T12:07:44;-22714.00;;;9.35;100.00
5296;BME280;2670;42.720;23.336;2023-03-04T12:10:21;-22715.34;;;9.39;100.00
5296;BME280;2670;42.720;23.336;2023-03-04T12:13:06;-22714.91;;;9.38;100.00
5296;BME280;2670;42.720;23.336;2023-03-04T12:15:49;-22711.94;;;9.28;100.00
5296;BME280;2670;42.720;23.336;2023-03-04T12:18:35;-22711.63;;;9.27;100.00
5296;BME280;2670;42.720;23.336;2023-03-04T12:21:16;-22707.78;;;9.13;100.00
5296;BME280;2670;42.720;23.336;2023-03-04T12:24:01;-22709.41;;;9.19;100.00
5296;BME280;2670;42.720;23.336;2023-03-04T12:26:37;-22708.06;;;9.14;100.00
5296;BME280;2670;42.720;23.336;2023-03-04T12:29:09;-22711.63;;;9.27;100.00
5296;BME280;2670;42.720;23.336;2023-03-04T12:31:41;-22711.19;;;9.25;100.00
5296;BME280;2670;42.720;23.336;2023-03-04T12:34:32;-22711.50;;;9.26;100.00
5296;BME280;2670;42.720;23.336;2023-03-04T12:40:07;-22714.00;;;9.35;100.00
5296;BME280;2670;42.720;23.336;2023-03-04T12:42:54;-22712.22;;;9.29;100.00
5296;BME280;2670;42.720;23.336;2023-03-04T12:45:26;-22714.00;;;9.35;100.00
5296;BME280;2670;42.720;23.336;2023-03-04T12:48:04;-22717.13;;;9.45;100.00
5296;BME280;2670;42.720;23.336;2023-03-04T12:50:38;-22714.16;;;9.35;100.00
5296;BME280;2670;42.720;23.336;2023-03-04T12:53:13;-22714.31;;;9.36;100.00
5296;BME280;2670;42.720;23.336;2023-03-04T12:55:44;-22712.38;;;9.29;100.00
5296;BME280;2670;42.720;23.336;2023-03-04T12:58:15;-22712.97;;;9.31;100.00
5296;BME280;2670;42.720;23.336;2023-03-04T13:00:49;-22713.28;;;9.32;100.00
5296;BME280;2670;42.720;23.336;2023-03-04T13:03:22;-22710.44;;;9.22;100.00
5296;BME280;2670;42.720;23.336;2023-03-04T13:06:05;-22709.84;;;9.20;100.00
5296;BME280;2670;42.720;23.336;2023-03-04T13:08:41;-22708.81;;;9.17;100.00
5296;BME280;2670;42.720;23.336;2023-03-04T13:14:29;-22710.91;;;9.24;100.00
5296;BME280;2670;42.720;23.336;2023-03-04T13:16:56;-22708.53;;;9.16;100.00
5296;BME280;2670;42.720;23.336;2023-03-04T13:19:48;-22711.03;;;9.25;100.00
5296;BME280;2670;42.720;23.336;2023-03-04T13:22:32;-22708.97;;;9.17;100.00
5296;BME280;2670;42.720;23.336;2023-03-04T13:25:26;-22709.84;;;9.20;100.00